Bei Facebook empfehlenBei Twitter postenGoogle plusPinterest

Das Wetter im Erzgebirge am 19.03.2016

Wetter und Klima am 19.03.2016 Holzhau im Erzgebirge (630m ü.NN)
Letzte gemessene Temperatur und Uhrzeit der Messung23:45:00 Uhr0.50 °C
Temperatur (Maximum / Höchstwert) und Uhrzeit der Messung13:15:00 Uhr4.30 °C
Temperatur (Minimum / Tiefstwert) und Uhrzeit der Messung00:00:000.40 °C
Errechneter Absolutwert der Temperaturschwankungen zwischen Tmin und Tmax des Tages3.90 K
Errechnete Tagesmitteltemperatur1.91563 °C
Gesamt - Niederschlag des Tages (in flüssiger Form)2.07 Liter / m²
Luftdruck (Maximum / Höchstwert) und Zeitpunkt der Messung12:30:00 Uhr1014.30 hPa
Luftdruck (Minimum / Tiefstwert) und Zeitpunkt der Messung04:30:00 Uhr1012.80 hPa
Errechneter Absolutwert der Luftdruckschwankungen des Tages1.50 hPa
Höchste gemessene Windgeschwindigkeit und Uhrzeit der Messung14:45:00 Uhr8.64 km/h
Errechnete Windhäufigkeit in Relation zu den Messwerten des Tages4.16667 %
Niedrigste Windkühle (Windchill) und Zeitpunkt der Messung08:00:00 Uhr-1.00 °C
Taupunkt (Maximum / Höchstwert) und Uhrzeit der Messung13:15:00 Uhr3.40 °C
Taupunkt (Minimum / Tiefstwert) und Uhrzeit der Messung00:00:00-0.90 °C
Anzahl der automatisch eingelesenen Messwerte 96

Detaillierte Wetter- und Klima- Messwerte für den 19.03.2016 in Holzhau im Erzgebirge (630m ü.NN)
ZeitTemperaturLuftdruckRel. LuftfeuchteWindWindrichtungWindchillTaupunktNiederschlag l/m²
23:45:000.50 °C1013.10 hPa92.00 %-0.60 °C2.07
23:30:000.70 °C1013.10 hPa92.00 %-0.40 °C2.07
23:15:000.90 °C1013.20 hPa92.00 %-0.20 °C2.07
23:00:000.90 °C1013.20 hPa92.00 %-0.20 °C2.07
22:45:001.10 °C1013.30 hPa92.00 %-0.10 °C2.07
22:30:001.30 °C1013.30 hPa92.00 %0.10 °C2.07
22:15:001.30 °C1013.60 hPa92.00 %0.10 °C2.07
22:00:001.30 °C1013.70 hPa92.00 %0.10 °C2.07
21:45:001.30 °C1013.60 hPa91.00 %0.00 °C2.07
21:30:001.40 °C1013.80 hPa92.00 %0.20 °C2.07
21:15:001.50 °C1013.80 hPa92.00 %0.30 °C2.07
21:00:001.60 °C1013.70 hPa92.00 %0.40 °C2.07
20:45:001.60 °C1013.90 hPa91.00 %0.30 °C2.07
20:30:001.60 °C1013.90 hPa91.00 %0.30 °C2.07
20:15:001.60 °C1013.80 hPa91.00 %0.30 °C2.07
20:00:001.60 °C1013.80 hPa91.00 %0.30 °C2.07
19:45:001.60 °C1013.50 hPa91.00 %0.30 °C2.07
19:30:001.60 °C1013.60 hPa90.00 %0.10 °C2.07
19:15:001.80 °C1013.70 hPa90.00 %0.30 °C2.07
19:00:001.80 °C1013.50 hPa90.00 %0.30 °C2.07
18:45:002.00 °C1013.50 hPa90.00 %0.50 °C2.07
18:30:002.10 °C1013.50 hPa90.00 %0.60 °C2.07
18:15:002.30 °C1013.50 hPa90.00 %0.80 °C2.07
18:00:002.50 °C1013.70 hPa90.00 %1.00 °C2.07
17:45:002.80 °C1013.60 hPa90.00 %1.30 °C2.07
17:30:003.00 °C1013.50 hPa90.00 %6.12 km/hNNW1.40 °C1.50 °C2.07
17:15:003.10 °C1013.40 hPa90.00 %1.60 °C2.07
17:00:003.30 °C1013.50 hPa90.00 %1.80 °C2.07
16:45:003.40 °C1013.50 hPa90.00 %1.90 °C2.07
16:30:003.60 °C1013.30 hPa91.00 %2.30 °C2.07
16:15:003.90 °C1013.50 hPa91.00 %2.60 °C2.07
16:00:004.00 °C1013.50 hPa92.00 %2.80 °C2.07
15:45:003.60 °C1013.80 hPa92.00 %2.40 °C2.07
15:30:003.30 °C1013.80 hPa92.00 %2.10 °C2.07
15:15:003.20 °C1013.80 hPa92.00 %2.00 °C2.07
15:00:003.20 °C1013.70 hPa92.00 %2.00 °C2.07
14:45:003.60 °C1013.90 hPa92.00 %8.64 km/hWNW1.30 °C2.40 °C2.07
14:30:003.60 °C1013.90 hPa92.00 %2.40 °C2.07
14:15:003.60 °C1013.90 hPa92.00 %2.40 °C2.07
14:00:003.90 °C1013.90 hPa93.00 %2.90 °C2.07
13:45:003.90 °C1013.90 hPa93.00 %2.90 °C2.07
13:30:003.90 °C1014.00 hPa93.00 %2.90 °C2.07
13:15:004.30 °C1014.20 hPa94.00 %3.40 °C2.07
13:00:003.70 °C1014.10 hPa94.00 %2.80 °C2.07
12:45:003.80 °C1014.20 hPa94.00 %2.90 °C2.07
12:30:003.80 °C1014.30 hPa94.00 %2.90 °C2.07
12:15:003.60 °C1014.20 hPa94.00 %2.70 °C2.07
12:00:003.60 °C1014.30 hPa95.00 %2.90 °C2.07
11:45:003.10 °C1014.30 hPa95.00 %2.40 °C2.07
11:30:002.60 °C1014.30 hPa94.00 %1.70 °C2.07
11:15:002.40 °C1014.20 hPa94.00 %1.50 °C2.07
11:00:002.20 °C1014.10 hPa94.00 %1.30 °C2.07
10:45:002.10 °C1014.10 hPa94.00 %1.20 °C2.07
10:30:001.90 °C1014.30 hPa94.00 %1.00 °C2.07
10:15:001.90 °C1014.10 hPa95.00 %1.20 °C2.07
10:00:001.60 °C1014.00 hPa94.00 %0.70 °C2.07
09:45:001.40 °C1014.10 hPa94.00 %0.50 °C2.07
09:30:001.30 °C1013.90 hPa94.00 %4.68 km/hWSW1.30 °C0.40 °C1.55
09:15:001.50 °C1013.90 hPa94.00 %0.60 °C1.55
09:00:001.40 °C1013.80 hPa94.00 %0.50 °C1.55
08:45:001.30 °C1013.60 hPa94.00 %0.40 °C1.55
08:30:001.30 °C1013.40 hPa94.00 %0.40 °C1.55
08:15:001.30 °C1013.50 hPa94.00 %0.40 °C1.55
08:00:001.30 °C1013.50 hPa94.00 %7.20 km/hWNW-1.00 °C0.40 °C1.55
07:45:001.30 °C1013.40 hPa94.00 %0.40 °C1.55
07:30:001.20 °C1013.20 hPa94.00 %0.30 °C1.55
07:15:001.20 °C1013.30 hPa94.00 %0.30 °C1.55
07:00:001.10 °C1013.30 hPa94.00 %0.20 °C1.03
06:45:001.10 °C1013.30 hPa94.00 %0.20 °C1.03
06:30:001.10 °C1013.30 hPa94.00 %0.20 °C1.03
06:15:001.20 °C1013.30 hPa94.00 %0.30 °C1.03
06:00:001.30 °C1013.40 hPa94.00 %0.40 °C1.03
05:45:001.30 °C1013.20 hPa93.00 %0.30 °C1.03
05:30:001.30 °C1013.00 hPa93.00 %0.30 °C1.03
05:15:001.30 °C1012.90 hPa93.00 %0.30 °C1.03
05:00:001.30 °C1012.90 hPa93.00 %0.30 °C1.03
04:45:001.30 °C1012.90 hPa93.00 %0.30 °C0.51
04:30:001.30 °C1012.80 hPa93.00 %0.30 °C0.51
04:15:001.30 °C1013.00 hPa93.00 %0.30 °C0.51
04:00:001.30 °C1013.10 hPa93.00 %0.30 °C0.51
03:45:001.30 °C1013.10 hPa93.00 %0.30 °C0.51
03:30:001.20 °C1013.30 hPa93.00 %0.20 °C0.51
03:15:001.10 °C1013.30 hPa93.00 %0.10 °C0.51
03:00:001.00 °C1013.40 hPa93.00 %0.00 °C0.51
02:45:000.90 °C1013.50 hPa93.00 %-0.10 °C0.51
02:30:000.90 °C1013.50 hPa93.00 %-0.10 °C0.51
02:15:000.90 °C1013.50 hPa93.00 %-0.10 °C 
02:00:000.90 °C1013.60 hPa93.00 %-0.10 °C 
01:45:000.90 °C1013.90 hPa93.00 %-0.10 °C 
01:30:000.90 °C1014.00 hPa92.00 %-0.20 °C 
01:15:000.80 °C1013.90 hPa92.00 %-0.30 °C 
01:00:000.80 °C1014.10 hPa92.00 %-0.30 °C 
00:45:000.70 °C1014.20 hPa92.00 %-0.40 °C 
00:30:000.60 °C1014.20 hPa92.00 %-0.50 °C 
00:15:000.50 °C1014.30 hPa92.00 %-0.60 °C 
00:00:000.40 °C1014.20 hPa91.00 %-0.90 °C 

Permanenter Link zu dieser Seite: Wetter im Erzgebirge am 19.03.2016
Performance-Info: Die Erstellung der Seite / Statistik(en) / Tabelle(n) erforderte 5 Datenbankserver-Abfrage(n) und dauerte 102 Millisekunden. (Dieser Messwert ist von der Gesamt-Auslastung des Servers abhängig.)
Erzgebirge - Wetter | Erzgebirge - Wetter (Mobilgeräte) | Komplette Klimadatenbank